createdAt,value
2019-03-03T00:02:03.832Z,86.50
2019-03-03T00:04:33.999Z,86.30
2019-03-03T00:07:04.136Z,86.10
2019-03-03T00:09:34.201Z,86.40
2019-03-03T00:12:04.328Z,87.50
2019-03-03T00:14:34.478Z,87.10
2019-03-03T00:17:04.818Z,87.40
2019-03-03T00:19:35.195Z,87.40
2019-03-03T00:22:05.266Z,87.50
2019-03-03T00:24:35.409Z,87.60
2019-03-03T00:27:06.773Z,87.80
2019-03-03T00:29:36.876Z,87.60
2019-03-03T00:32:06.910Z,87.50
2019-03-03T00:34:37.137Z,87.50
2019-03-03T00:37:16.615Z,87.30
2019-03-03T00:39:51.664Z,87.30
2019-03-03T00:42:39.649Z,87.40
2019-03-03T00:45:29.132Z,87.50
2019-03-03T00:48:07.281Z,87.70
2019-03-03T00:50:54.158Z,87.80
2019-03-03T00:53:40.657Z,87.70
2019-03-03T00:56:35.618Z,87.50
2019-03-03T00:59:30.480Z,87.30
2019-03-03T01:02:09.427Z,87.40
2019-03-03T01:04:55.462Z,87.30
2019-03-03T01:07:47.522Z,88.20
2019-03-03T01:10:54.819Z,87.10
2019-03-03T01:13:55.940Z,87.00
2019-03-03T01:16:38.197Z,87.00
2019-03-03T01:19:22.045Z,88.00
2019-03-03T01:22:11.075Z,87.10
2019-03-03T01:24:58.422Z,87.00
2019-03-03T01:27:28.659Z,86.80
2019-03-03T01:29:58.865Z,86.30
2019-03-03T01:32:28.942Z,86.00
2019-03-03T01:34:59.032Z,85.70
2019-03-03T01:37:29.580Z,85.30
2019-03-03T01:39:59.996Z,85.00
2019-03-03T01:42:30.094Z,84.80
2019-03-03T01:45:00.352Z,84.70
2019-03-03T01:47:30.487Z,84.50
2019-03-03T01:50:00.927Z,84.40
2019-03-03T01:52:30.971Z,84.50
2019-03-03T01:55:01.032Z,84.30
2019-03-03T01:57:31.106Z,84.10
2019-03-03T02:00:01.199Z,83.80
2019-03-03T02:02:32.378Z,83.50
2019-03-03T02:05:02.490Z,83.10
2019-03-03T02:07:33.739Z,83.10
2019-03-03T02:10:03.915Z,83.10
2019-03-03T02:12:33.896Z,83.10
2019-03-03T02:15:05.518Z,83.20
2019-03-03T02:17:35.822Z,83.10
2019-03-03T02:20:06.560Z,83.80
2019-03-03T02:22:36.671Z,82.70
2019-03-03T02:25:08.004Z,82.70
2019-03-03T02:27:38.960Z,82.50
2019-03-03T02:30:12.411Z,82.50
2019-03-03T02:32:42.538Z,83.40
2019-03-03T02:35:12.631Z,82.50
2019-03-03T02:37:42.826Z,82.20
2019-03-03T02:40:14.989Z,82.20
2019-03-03T02:42:45.154Z,82.10
2019-03-03T02:45:15.379Z,82.00
2019-03-03T02:47:45.456Z,82.00
2019-03-03T02:50:15.600Z,82.00
2019-03-03T02:52:46.056Z,82.20
2019-03-03T02:55:16.212Z,82.90
2019-03-03T02:57:47.092Z,82.00
2019-03-03T03:00:19.782Z,82.00
2019-03-03T03:02:55.127Z,82.00
2019-03-03T03:05:40.670Z,81.80
2019-03-03T03:08:13.915Z,81.90
2019-03-03T03:10:52.304Z,81.90
2019-03-03T03:13:41.486Z,82.00
2019-03-03T03:16:25.219Z,82.10
2019-03-03T03:19:17.365Z,82.00
2019-03-03T03:21:56.615Z,82.10
2019-03-03T03:24:51.734Z,81.90
2019-03-03T03:27:43.903Z,82.00
2019-03-03T03:30:42.337Z,82.20
2019-03-03T03:33:34.406Z,82.10
2019-03-03T03:36:09.283Z,82.00
2019-03-03T03:38:58.260Z,82.00
2019-03-03T03:41:34.376Z,82.00
2019-03-03T03:44:42.293Z,81.80
2019-03-03T03:47:35.055Z,81.80
2019-03-03T03:50:36.903Z,83.10
2019-03-03T03:53:21.149Z,82.20
2019-03-03T03:56:10.355Z,82.20
2019-03-03T03:58:58.562Z,81.90
2019-03-03T04:01:46.621Z,81.90
2019-03-03T04:04:22.402Z,82.00
2019-03-03T04:07:04.183Z,82.00
2019-03-03T04:09:39.155Z,81.80
2019-03-03T04:12:19.500Z,81.80
2019-03-03T04:15:13.504Z,81.90
2019-03-03T04:18:02.991Z,81.90
2019-03-03T04:20:52.203Z,81.80
2019-03-03T04:23:40.040Z,81.90
2019-03-03T04:26:20.822Z,81.90
2019-03-03T04:29:13.212Z,81.80
2019-03-03T04:32:02.344Z,81.80
2019-03-03T04:34:50.077Z,81.80
2019-03-03T04:37:35.651Z,81.90
2019-03-03T04:40:16.519Z,81.60
2019-03-03T04:43:20.752Z,81.60
2019-03-03T04:46:06.923Z,81.60
2019-03-03T04:48:49.877Z,81.50
2019-03-03T04:51:35.675Z,81.50
2019-03-03T04:54:21.932Z,81.30
2019-03-03T04:57:14.385Z,81.50
2019-03-03T05:00:03.609Z,81.60
2019-03-03T05:02:52.907Z,81.70
2019-03-03T05:05:42.004Z,81.80
2019-03-03T05:08:34.274Z,81.60
2019-03-03T05:11:23.400Z,81.80
2019-03-03T05:14:01.824Z,81.70
2019-03-03T05:17:03.206Z,81.60
2019-03-03T05:19:44.826Z,81.70
2019-03-03T05:22:15.731Z,81.90
2019-03-03T05:24:45.790Z,82.10
2019-03-03T05:27:15.962Z,82.10
2019-03-03T05:29:46.038Z,82.20
2019-03-03T05:32:16.178Z,82.20
2019-03-03T05:34:46.291Z,82.20
2019-03-03T05:37:16.435Z,82.20
2019-03-03T05:39:46.492Z,82.20
2019-03-03T05:42:16.727Z,82.10
2019-03-03T05:44:46.842Z,82.10
2019-03-03T05:47:16.999Z,82.20
2019-03-03T05:49:47.588Z,82.20
2019-03-03T05:52:17.790Z,82.30
2019-03-03T05:54:47.901Z,82.10
2019-03-03T05:57:18.133Z,82.10
2019-03-03T05:59:48.243Z,82.00
2019-03-03T06:02:18.393Z,81.80
2019-03-03T06:04:48.436Z,81.70
2019-03-03T06:07:18.507Z,81.50
2019-03-03T06:09:48.538Z,81.50
2019-03-03T06:12:18.631Z,81.40
2019-03-03T06:14:48.657Z,81.30
2019-03-03T06:17:18.745Z,81.00
2019-03-03T06:19:48.843Z,80.80
2019-03-03T06:22:18.938Z,80.70
2019-03-03T06:24:49.073Z,80.60
2019-03-03T06:27:19.294Z,80.40
2019-03-03T06:29:49.346Z,80.40
2019-03-03T06:32:20.493Z,80.40
2019-03-03T06:34:50.671Z,80.10
2019-03-03T06:37:20.729Z,80.00
2019-03-03T06:39:50.830Z,79.80
2019-03-03T06:42:21.022Z,79.70
2019-03-03T06:44:51.211Z,79.60
2019-03-03T06:47:21.384Z,80.30
2019-03-03T06:49:51.502Z,79.50
2019-03-03T06:52:22.423Z,79.70
2019-03-03T06:54:52.515Z,79.50
2019-03-03T06:57:22.611Z,79.40
2019-03-03T06:59:52.743Z,79.40
2019-03-03T07:02:22.863Z,79.20
2019-03-03T07:04:52.917Z,79.10
2019-03-03T07:07:23.023Z,79.00
2019-03-03T07:09:53.099Z,78.70
2019-03-03T07:12:23.138Z,78.50
2019-03-03T07:14:54.314Z,78.60
2019-03-03T07:17:24.388Z,78.70
2019-03-03T07:19:54.489Z,78.70
2019-03-03T07:22:24.640Z,78.60
2019-03-03T07:24:55.809Z,78.50
2019-03-03T07:27:26.350Z,78.20
2019-03-03T07:29:57.439Z,78.20
2019-03-03T07:32:27.551Z,78.20
2019-03-03T07:34:57.647Z,78.40
2019-03-03T07:37:28.268Z,78.10
2019-03-03T07:39:59.548Z,78.10
2019-03-03T07:42:29.627Z,78.70
2019-03-03T07:44:59.684Z,77.80
2019-03-03T07:47:29.815Z,77.80
2019-03-03T07:49:59.908Z,78.00
2019-03-03T07:52:30.167Z,77.90
2019-03-03T07:55:00.339Z,77.80
2019-03-03T07:57:30.497Z,77.80
2019-03-03T08:00:01.580Z,77.60
2019-03-03T08:02:33.021Z,77.50
2019-03-03T08:05:05.243Z,77.40
2019-03-03T08:07:35.432Z,77.20
2019-03-03T08:10:06.179Z,77.40
2019-03-03T08:12:37.933Z,77.30
2019-03-03T08:15:08.443Z,77.30
2019-03-03T08:17:38.918Z,77.40
2019-03-03T08:20:10.651Z,77.30
2019-03-03T08:22:40.823Z,77.30
2019-03-03T08:25:11.520Z,77.20
2019-03-03T08:27:41.592Z,77.20
2019-03-03T08:30:11.862Z,77.20
2019-03-03T08:32:42.069Z,77.10
2019-03-03T08:35:13.444Z,77.00
2019-03-03T08:37:43.598Z,76.90
2019-03-03T08:40:13.881Z,76.90
2019-03-03T08:42:48.728Z,76.50
2019-03-03T08:45:36.798Z,76.30
2019-03-03T08:48:12.722Z,76.20
2019-03-03T08:51:07.716Z,76.30
2019-03-03T08:53:55.591Z,76.50
2019-03-03T08:56:33.091Z,76.30
2019-03-03T08:59:26.023Z,76.40
2019-03-03T09:02:23.803Z,76.30
2019-03-03T09:05:12.878Z,76.10
2019-03-03T09:08:09.544Z,75.80
2019-03-03T09:10:55.201Z,75.80
2019-03-03T09:13:47.451Z,75.70
2019-03-03T09:16:36.581Z,75.60
2019-03-03T09:19:25.686Z,75.50
2019-03-03T09:22:24.260Z,75.30
2019-03-03T09:25:05.743Z,75.00
2019-03-03T09:27:43.362Z,74.70
2019-03-03T09:30:32.499Z,74.30
2019-03-03T09:33:20.360Z,74.50
2019-03-03T09:35:54.962Z,74.30
2019-03-03T09:38:38.723Z,74.20
2019-03-03T09:41:25.425Z,74.40
2019-03-03T09:44:15.672Z,74.40
2019-03-03T09:46:58.026Z,74.40
2019-03-03T09:49:41.233Z,74.20
2019-03-03T09:52:41.113Z,74.00
2019-03-03T09:55:29.178Z,73.80
2019-03-03T09:58:16.747Z,73.50
2019-03-03T10:01:08.864Z,73.50
2019-03-03T10:04:10.060Z,73.10
2019-03-03T10:06:52.611Z,72.70
2019-03-03T10:09:32.732Z,72.20
2019-03-03T10:12:12.010Z,71.70
2019-03-03T10:14:49.399Z,71.30
2019-03-03T10:17:25.447Z,70.30
2019-03-03T10:20:26.706Z,69.20
2019-03-03T10:23:05.322Z,68.70
2019-03-03T10:25:53.483Z,68.70
2019-03-03T10:28:41.222Z,68.30
2019-03-03T10:31:41.322Z,68.80
2019-03-03T10:34:22.499Z,69.50
2019-03-03T10:37:10.538Z,69.90
2019-03-03T10:39:56.629Z,70.20
2019-03-03T10:42:31.894Z,70.30
2019-03-03T10:45:14.713Z,70.40
2019-03-03T10:48:04.085Z,70.30
2019-03-03T10:50:59.547Z,70.20
2019-03-03T10:53:54.651Z,70.10
2019-03-03T10:56:44.363Z,70.10
2019-03-03T10:59:42.692Z,69.60
2019-03-03T11:02:34.891Z,69.80
2019-03-03T11:05:33.148Z,70.30
2019-03-03T11:08:13.148Z,70.00
2019-03-03T11:10:59.864Z,70.10
2019-03-03T11:13:52.189Z,70.30
2019-03-03T11:16:40.099Z,70.30
2019-03-03T11:19:20.135Z,70.20
2019-03-03T11:22:21.975Z,69.30
2019-03-03T11:25:20.005Z,69.90
2019-03-03T11:28:23.965Z,69.70
2019-03-03T11:31:00.174Z,69.70
2019-03-03T11:33:54.999Z,69.70
2019-03-03T11:36:43.439Z,69.20
2019-03-03T11:39:35.904Z,68.60
2019-03-03T11:42:19.890Z,68.40
2019-03-03T11:45:00.554Z,68.10
2019-03-03T11:47:38.983Z,68.40
2019-03-03T11:50:30.743Z,68.00
2019-03-03T11:53:15.781Z,67.90
2019-03-03T11:56:20.294Z,67.70
2019-03-03T11:59:15.462Z,67.70
2019-03-03T12:02:04.626Z,67.70
2019-03-03T12:05:01.019Z,67.60
2019-03-03T12:07:50.385Z,67.70
2019-03-03T12:10:51.517Z,68.30
2019-03-03T12:13:27.355Z,68.50
2019-03-03T12:16:22.834Z,68.00
2019-03-03T12:19:21.070Z,67.70
2019-03-03T12:22:22.526Z,67.10
2019-03-03T12:25:24.071Z,66.60
2019-03-03T12:28:13.249Z,66.60
2019-03-03T12:30:58.859Z,66.60
2019-03-03T12:33:36.669Z,67.20
2019-03-03T12:36:31.992Z,67.70
2019-03-03T12:39:20.331Z,68.00
2019-03-03T12:42:16.811Z,68.30
2019-03-03T12:44:52.919Z,69.40
2019-03-03T12:47:40.959Z,70.90
2019-03-03T12:50:44.478Z,71.60
2019-03-03T12:53:30.030Z,72.10
2019-03-03T12:56:21.927Z,72.10
2019-03-03T12:59:10.971Z,72.50
2019-03-03T13:01:51.412Z,72.40
2019-03-03T13:04:58.983Z,72.20
2019-03-03T13:07:51.056Z,71.90
2019-03-03T13:10:40.155Z,71.70
2019-03-03T13:13:31.176Z,71.30
2019-03-03T13:16:07.036Z,70.70
2019-03-03T13:18:58.933Z,70.30
2019-03-03T13:21:41.193Z,69.70
2019-03-03T13:24:48.458Z,68.90
2019-03-03T13:27:45.718Z,68.40
2019-03-03T13:30:29.831Z,68.50
2019-03-03T13:33:31.074Z,68.60
2019-03-03T13:36:13.438Z,67.20
2019-03-03T13:39:06.287Z,66.80
2019-03-03T13:41:45.734Z,66.30
2019-03-03T13:44:15.777Z,65.70
2019-03-03T13:46:45.859Z,65.60
2019-03-03T13:49:15.948Z,65.20
2019-03-03T13:51:46.061Z,65.60
2019-03-03T13:54:16.276Z,66.00
2019-03-03T13:56:46.463Z,66.60
2019-03-03T13:59:16.584Z,66.90
2019-03-03T14:01:46.740Z,67.20
2019-03-03T14:04:16.796Z,67.70
2019-03-03T14:06:46.831Z,68.00
2019-03-03T14:09:16.901Z,69.50
2019-03-03T14:11:47.015Z,68.90
2019-03-03T14:14:17.227Z,69.00
2019-03-03T14:16:47.778Z,69.00
2019-03-03T14:19:17.911Z,69.20
2019-03-03T14:21:48.301Z,69.40
2019-03-03T14:24:18.457Z,69.50
2019-03-03T14:26:50.421Z,69.50
2019-03-03T14:29:20.555Z,70.10
2019-03-03T14:31:50.733Z,68.90
2019-03-03T14:34:21.013Z,68.90
2019-03-03T14:36:51.159Z,68.80
2019-03-03T14:39:21.531Z,68.50
2019-03-03T14:41:51.685Z,68.30
2019-03-03T14:44:21.822Z,68.10
2019-03-03T14:46:52.026Z,68.10
2019-03-03T14:49:22.330Z,68.20
2019-03-03T14:51:52.535Z,68.00
2019-03-03T14:54:22.689Z,67.80
2019-03-03T14:56:52.911Z,67.70
2019-03-03T14:59:23.099Z,67.70
2019-03-03T15:01:53.286Z,68.40
2019-03-03T15:04:23.770Z,67.40
2019-03-03T15:06:53.940Z,67.30
2019-03-03T15:09:24.720Z,68.00
2019-03-03T15:11:55.980Z,66.70
2019-03-03T15:14:26.191Z,66.60
2019-03-03T15:16:56.423Z,66.60
2019-03-03T15:19:26.643Z,66.40
2019-03-03T15:21:56.700Z,67.50
2019-03-03T15:24:26.838Z,66.80
2019-03-03T15:26:57.044Z,67.20
2019-03-03T15:29:27.251Z,68.30
2019-03-03T15:31:57.484Z,69.10
2019-03-03T15:34:27.608Z,69.70
2019-03-03T15:36:58.842Z,70.00
2019-03-03T15:39:29.095Z,71.20
2019-03-03T15:41:59.287Z,72.10
2019-03-03T15:44:29.418Z,72.40
2019-03-03T15:46:59.592Z,72.90
2019-03-03T15:49:29.774Z,73.10
2019-03-03T15:51:59.985Z,72.90
2019-03-03T15:54:30.270Z,72.90
2019-03-03T15:57:00.544Z,72.80
2019-03-03T15:59:30.804Z,72.60
2019-03-03T16:02:02.527Z,72.60
2019-03-03T16:04:32.906Z,72.80
2019-03-03T16:07:03.099Z,72.70
2019-03-03T16:09:33.223Z,72.70
2019-03-03T16:12:03.410Z,72.70
2019-03-03T16:14:33.642Z,72.80
2019-03-03T16:17:03.900Z,72.90
2019-03-03T16:19:34.103Z,72.70
2019-03-03T16:22:04.380Z,72.70
2019-03-03T16:24:35.920Z,72.80
2019-03-03T16:27:06.187Z,72.80
2019-03-03T16:29:36.387Z,72.90
2019-03-03T16:32:06.667Z,72.90
2019-03-03T16:34:38.202Z,73.20
2019-03-03T16:37:08.407Z,73.20
2019-03-03T16:39:38.636Z,73.30
2019-03-03T16:42:08.842Z,73.30
2019-03-03T16:44:38.982Z,73.00
2019-03-03T16:47:09.182Z,73.00
2019-03-03T16:49:39.307Z,73.00
2019-03-03T16:52:09.492Z,72.70
2019-03-03T16:54:39.679Z,72.80
2019-03-03T16:57:09.902Z,72.70
2019-03-03T16:59:40.067Z,72.70
2019-03-03T17:02:10.220Z,73.20
2019-03-03T17:04:40.319Z,72.00
2019-03-03T17:07:10.438Z,71.80
2019-03-03T17:09:40.583Z,71.80
2019-03-03T17:12:12.490Z,71.80
2019-03-03T17:14:42.613Z,71.50
2019-03-03T17:17:12.691Z,71.20
2019-03-03T17:19:42.801Z,71.00
2019-03-03T17:22:13.027Z,70.90
2019-03-03T17:24:43.450Z,70.80
2019-03-03T17:27:13.545Z,71.60
2019-03-03T17:29:43.682Z,70.60
2019-03-03T17:32:13.870Z,70.50
2019-03-03T17:34:44.002Z,70.40
2019-03-03T17:37:14.123Z,70.40
2019-03-03T17:39:44.238Z,70.20
2019-03-03T17:42:14.279Z,70.70
2019-03-03T17:44:44.392Z,70.60
2019-03-03T17:47:14.503Z,70.40
2019-03-03T17:49:46.559Z,70.30
2019-03-03T17:52:16.377Z,70.40
2019-03-03T17:54:46.491Z,71.20
2019-03-03T17:57:16.515Z,70.60
2019-03-03T17:59:47.584Z,70.50
2019-03-03T18:02:17.790Z,70.30
2019-03-03T18:04:48.902Z,70.30
2019-03-03T18:07:19.048Z,70.20
2019-03-03T18:09:49.091Z,70.50
2019-03-03T18:12:19.120Z,70.50
2019-03-03T18:14:49.183Z,70.60
2019-03-03T18:17:20.851Z,70.40
2019-03-03T18:19:50.888Z,70.50
2019-03-03T18:22:21.071Z,70.60
2019-03-03T18:24:51.154Z,70.60
2019-03-03T18:27:21.267Z,70.80
2019-03-03T18:29:51.263Z,70.80
2019-03-03T18:32:21.294Z,70.90
2019-03-03T18:34:51.396Z,70.80
2019-03-03T18:37:21.438Z,70.90
2019-03-03T18:39:51.552Z,71.00
2019-03-03T18:42:21.653Z,70.90
2019-03-03T18:44:51.795Z,71.10
2019-03-03T18:47:21.854Z,71.80
2019-03-03T18:49:51.995Z,70.80
2019-03-03T18:52:22.098Z,70.80
2019-03-03T18:54:52.219Z,70.70
2019-03-03T18:57:22.363Z,70.50
2019-03-03T18:59:52.496Z,70.40
2019-03-03T19:02:22.684Z,70.60
2019-03-03T19:04:52.936Z,70.40
2019-03-03T19:07:23.428Z,69.80
2019-03-03T19:09:53.550Z,70.20
2019-03-03T19:12:23.698Z,69.90
2019-03-03T19:14:53.848Z,69.90
2019-03-03T19:17:24.409Z,70.00
2019-03-03T19:19:55.196Z,69.80
2019-03-03T19:22:25.324Z,69.60
2019-03-03T19:24:55.605Z,69.60
2019-03-03T19:27:25.790Z,70.10
2019-03-03T19:29:55.951Z,69.60
2019-03-03T19:32:26.078Z,69.80
2019-03-03T19:34:56.267Z,69.60
2019-03-03T19:37:26.419Z,69.70
2019-03-03T19:39:56.853Z,69.50
2019-03-03T19:42:26.943Z,69.50
2019-03-03T19:44:57.158Z,69.50
2019-03-03T19:47:27.715Z,69.40
2019-03-03T19:49:57.883Z,69.40
2019-03-03T19:52:28.098Z,69.20
2019-03-03T19:54:58.670Z,69.40
2019-03-03T19:57:28.839Z,69.50
2019-03-03T19:59:59.057Z,69.50
2019-03-03T20:02:29.128Z,69.70
2019-03-03T20:04:59.292Z,69.60
2019-03-03T20:07:29.407Z,69.60
2019-03-03T20:09:59.850Z,69.70
2019-03-03T20:12:29.978Z,69.80
2019-03-03T20:15:00.190Z,70.80
2019-03-03T20:17:30.474Z,70.00
2019-03-03T20:20:00.571Z,70.00
2019-03-03T20:22:30.674Z,69.80
2019-03-03T20:25:01.014Z,69.80
2019-03-03T20:27:32.760Z,69.80
2019-03-03T20:30:02.953Z,69.90
2019-03-03T20:32:33.303Z,69.80
2019-03-03T20:35:03.459Z,69.80
2019-03-03T20:37:34.560Z,69.80
2019-03-03T20:40:05.724Z,69.70
2019-03-03T20:42:35.743Z,70.80
2019-03-03T20:45:06.678Z,69.70
2019-03-03T20:47:36.734Z,69.70
2019-03-03T20:50:10.240Z,69.90
2019-03-03T20:52:40.380Z,70.10
2019-03-03T20:55:12.123Z,70.40
2019-03-03T20:57:42.142Z,70.70
2019-03-03T21:00:15.015Z,70.50
2019-03-03T21:02:45.116Z,70.40
2019-03-03T21:05:15.203Z,70.40
2019-03-03T21:07:51.532Z,70.40
2019-03-03T21:10:18.763Z,71.20
2019-03-03T21:12:48.868Z,70.60
2019-03-03T21:15:19.015Z,70.50
2019-03-03T21:17:49.181Z,70.60
2019-03-03T21:20:19.762Z,70.50
2019-03-03T21:22:49.959Z,70.60
2019-03-03T21:25:20.073Z,70.60
2019-03-03T21:27:50.250Z,70.60
2019-03-03T21:30:21.947Z,70.30
2019-03-03T21:32:52.049Z,70.60
2019-03-03T21:35:22.102Z,70.60
2019-03-03T21:37:52.746Z,70.60
2019-03-03T21:40:22.962Z,70.50
2019-03-03T21:42:53.176Z,70.50
2019-03-03T21:45:23.464Z,70.70
2019-03-03T21:47:53.595Z,70.70
2019-03-03T21:50:23.706Z,70.70
2019-03-03T21:52:53.781Z,70.70
2019-03-03T21:55:23.936Z,70.70
2019-03-03T21:57:54.055Z,70.70
2019-03-03T22:00:31.492Z,70.70
2019-03-03T22:03:01.614Z,70.70
2019-03-03T22:05:31.907Z,70.60
2019-03-03T22:08:01.960Z,70.60
2019-03-03T22:10:32.975Z,70.70
2019-03-03T22:13:13.314Z,70.70
2019-03-03T22:15:43.588Z,70.90
2019-03-03T22:18:13.635Z,71.20
2019-03-03T22:20:43.672Z,71.50
2019-03-03T22:23:13.812Z,71.90
2019-03-03T22:25:44.920Z,72.00
2019-03-03T22:28:15.017Z,72.00
2019-03-03T22:30:45.153Z,72.30
2019-03-03T22:33:15.371Z,72.00
2019-03-03T22:35:45.772Z,72.30
2019-03-03T22:38:16.516Z,72.40
2019-03-03T22:40:46.637Z,72.40
2019-03-03T22:43:16.815Z,72.30
2019-03-03T22:45:46.882Z,72.00
2019-03-03T22:48:17.087Z,72.00
2019-03-03T22:50:47.159Z,72.00
2019-03-03T22:53:17.359Z,72.10
2019-03-03T22:55:47.543Z,72.40
2019-03-03T22:58:18.621Z,72.70
2019-03-03T23:01:01.240Z,73.10
2019-03-03T23:03:35.624Z,73.20
2019-03-03T23:06:43.016Z,73.60
2019-03-03T23:09:46.918Z,73.90
2019-03-03T23:12:57.736Z,74.10
2019-03-03T23:15:55.209Z,74.30
2019-03-03T23:18:52.727Z,74.70
2019-03-03T23:22:02.023Z,75.00
2019-03-03T23:24:54.716Z,75.10
2019-03-03T23:27:24.871Z,75.20
2019-03-03T23:29:55.024Z,75.10
2019-03-03T23:32:26.042Z,75.10
2019-03-03T23:34:56.115Z,75.20
2019-03-03T23:37:26.238Z,75.10
2019-03-03T23:39:56.390Z,74.90
2019-03-03T23:42:26.624Z,74.80
2019-03-03T23:44:56.799Z,74.60
2019-03-03T23:47:26.917Z,74.50
2019-03-03T23:49:57.024Z,74.30
2019-03-03T23:52:27.163Z,74.20
2019-03-03T23:54:57.294Z,74.00
2019-03-03T23:57:27.459Z,73.70
2019-03-03T23:59:57.563Z,73.60
